sensor_id;sensor_type;location;lat;lon;timestamp;P1;durP1;ratioP1;P2;durP2;ratioP2
2289;SDS011;1153;47.986;7.898;2023-08-17T00:00:43;4.83;;;4.43;;
2289;SDS011;1153;47.986;7.898;2023-08-17T00:03:08;4.77;;;4.57;;
2289;SDS011;1153;47.986;7.898;2023-08-17T00:05:34;6.70;;;5.50;;
2289;SDS011;1153;47.986;7.898;2023-08-17T00:08:02;4.70;;;4.30;;
2289;SDS011;1153;47.986;7.898;2023-08-17T00:10:28;4.30;;;4.00;;
2289;SDS011;1153;47.986;7.898;2023-08-17T00:12:53;6.13;;;4.00;;
2289;SDS011;1153;47.986;7.898;2023-08-17T00:15:18;5.20;;;4.77;;
2289;SDS011;1153;47.986;7.898;2023-08-17T00:17:43;4.73;;;4.43;;
2289;SDS011;1153;47.986;7.898;2023-08-17T00:20:09;5.90;;;3.80;;
2289;SDS011;1153;47.986;7.898;2023-08-17T00:22:35;4.30;;;4.10;;
2289;SDS011;1153;47.986;7.898;2023-08-17T00:25:00;5.93;;;5.40;;
2289;SDS011;1153;47.986;7.898;2023-08-17T00:27:25;4.30;;;4.10;;
2289;SDS011;1153;47.986;7.898;2023-08-17T00:29:50;4.87;;;4.43;;
2289;SDS011;1153;47.986;7.898;2023-08-17T00:32:15;5.40;;;5.00;;
2289;SDS011;1153;47.986;7.898;2023-08-17T00:34:41;5.17;;;4.67;;
2289;SDS011;1153;47.986;7.898;2023-08-17T00:37:06;5.10;;;4.67;;
2289;SDS011;1153;47.986;7.898;2023-08-17T00:39:31;7.70;;;4.20;;
2289;SDS011;1153;47.986;7.898;2023-08-17T00:41:56;5.77;;;4.23;;
2289;SDS011;1153;47.986;7.898;2023-08-17T00:44:21;4.67;;;4.37;;
2289;SDS011;1153;47.986;7.898;2023-08-17T00:46:46;4.80;;;4.50;;
2289;SDS011;1153;47.986;7.898;2023-08-17T00:49:12;4.13;;;4.00;;
2289;SDS011;1153;47.986;7.898;2023-08-17T00:51:37;4.87;;;4.47;;
2289;SDS011;1153;47.986;7.898;2023-08-17T00:54:02;5.13;;;4.60;;
2289;SDS011;1153;47.986;7.898;2023-08-17T00:56:28;5.13;;;4.73;;
2289;SDS011;1153;47.986;7.898;2023-08-17T00:58:54;5.00;;;4.80;;
2289;SDS011;1153;47.986;7.898;2023-08-17T01:01:19;4.70;;;4.40;;
2289;SDS011;1153;47.986;7.898;2023-08-17T01:03:45;5.23;;;5.03;;
2289;SDS011;1153;47.986;7.898;2023-08-17T01:06:10;5.20;;;4.90;;
2289;SDS011;1153;47.986;7.898;2023-08-17T01:08:36;5.43;;;5.00;;
2289;SDS011;1153;47.986;7.898;2023-08-17T01:11:05;4.57;;;4.27;;
2289;SDS011;1153;47.986;7.898;2023-08-17T01:13:49;5.00;;;4.80;;
2289;SDS011;1153;47.986;7.898;2023-08-17T01:16:21;5.03;;;4.73;;
2289;SDS011;1153;47.986;7.898;2023-08-17T01:18:46;6.13;;;5.73;;
2289;SDS011;1153;47.986;7.898;2023-08-17T01:21:13;4.73;;;4.47;;
2289;SDS011;1153;47.986;7.898;2023-08-17T01:23:39;4.90;;;4.60;;
2289;SDS011;1153;47.986;7.898;2023-08-17T01:26:04;4.60;;;4.30;;
2289;SDS011;1153;47.986;7.898;2023-08-17T01:28:30;6.33;;;4.80;;
2289;SDS011;1153;47.986;7.898;2023-08-17T01:30:57;4.73;;;4.53;;
2289;SDS011;1153;47.986;7.898;2023-08-17T01:33:44;5.27;;;4.90;;
2289;SDS011;1153;47.986;7.898;2023-08-17T01:36:13;5.80;;;5.60;;
2289;SDS011;1153;47.986;7.898;2023-08-17T01:38:42;6.27;;;4.47;;
2289;SDS011;1153;47.986;7.898;2023-08-17T01:41:09;5.30;;;5.00;;
2289;SDS011;1153;47.986;7.898;2023-08-17T01:43:38;5.83;;;5.53;;
2289;SDS011;1153;47.986;7.898;2023-08-17T01:46:03;5.17;;;4.70;;
2289;SDS011;1153;47.986;7.898;2023-08-17T01:48:28;5.57;;;5.07;;
2289;SDS011;1153;47.986;7.898;2023-08-17T01:50:53;5.17;;;4.87;;
2289;SDS011;1153;47.986;7.898;2023-08-17T01:53:19;5.10;;;4.90;;
2289;SDS011;1153;47.986;7.898;2023-08-17T01:55:44;5.70;;;5.50;;
2289;SDS011;1153;47.986;7.898;2023-08-17T01:58:09;5.27;;;4.97;;
2289;SDS011;1153;47.986;7.898;2023-08-17T02:00:34;5.67;;;5.27;;
2289;SDS011;1153;47.986;7.898;2023-08-17T02:02:59;6.23;;;5.63;;
2289;SDS011;1153;47.986;7.898;2023-08-17T02:05:25;6.50;;;5.80;;
2289;SDS011;1153;47.986;7.898;2023-08-17T02:07:53;4.87;;;4.47;;
2289;SDS011;1153;47.986;7.898;2023-08-17T02:10:18;4.80;;;4.37;;
2289;SDS011;1153;47.986;7.898;2023-08-17T02:12:43;4.73;;;4.53;;
2289;SDS011;1153;47.986;7.898;2023-08-17T02:15:08;5.70;;;5.30;;
2289;SDS011;1153;47.986;7.898;2023-08-17T02:17:34;4.83;;;4.50;;
2289;SDS011;1153;47.986;7.898;2023-08-17T02:19:59;5.20;;;4.80;;
2289;SDS011;1153;47.986;7.898;2023-08-17T02:22:24;4.77;;;4.20;;
2289;SDS011;1153;47.986;7.898;2023-08-17T02:24:49;5.80;;;5.37;;
2289;SDS011;1153;47.986;7.898;2023-08-17T02:27:15;6.60;;;6.10;;
2289;SDS011;1153;47.986;7.898;2023-08-17T02:29:40;4.30;;;4.10;;
2289;SDS011;1153;47.986;7.898;2023-08-17T02:32:05;4.50;;;4.20;;
2289;SDS011;1153;47.986;7.898;2023-08-17T02:34:30;5.30;;;5.00;;
2289;SDS011;1153;47.986;7.898;2023-08-17T02:36:55;4.90;;;4.60;;
2289;SDS011;1153;47.986;7.898;2023-08-17T02:39:20;4.53;;;4.13;;
2289;SDS011;1153;47.986;7.898;2023-08-17T02:41:46;5.00;;;4.60;;
2289;SDS011;1153;47.986;7.898;2023-08-17T02:44:13;5.10;;;4.70;;
2289;SDS011;1153;47.986;7.898;2023-08-17T02:46:39;5.00;;;4.70;;
2289;SDS011;1153;47.986;7.898;2023-08-17T02:49:04;5.27;;;4.97;;
2289;SDS011;1153;47.986;7.898;2023-08-17T02:51:29;5.70;;;5.07;;
2289;SDS011;1153;47.986;7.898;2023-08-17T02:53:54;5.97;;;5.70;;
2289;SDS011;1153;47.986;7.898;2023-08-17T02:56:19;4.30;;;4.07;;
2289;SDS011;1153;47.986;7.898;2023-08-17T02:58:44;5.50;;;5.10;;
2289;SDS011;1153;47.986;7.898;2023-08-17T03:01:10;5.37;;;4.97;;
2289;SDS011;1153;47.986;7.898;2023-08-17T03:03:35;5.60;;;5.20;;
2289;SDS011;1153;47.986;7.898;2023-08-17T03:06:01;9.33;;;5.10;;
2289;SDS011;1153;47.986;7.898;2023-08-17T03:08:27;5.70;;;5.50;;
2289;SDS011;1153;47.986;7.898;2023-08-17T03:10:52;7.43;;;4.10;;
2289;SDS011;1153;47.986;7.898;2023-08-17T03:13:17;5.33;;;5.13;;
2289;SDS011;1153;47.986;7.898;2023-08-17T03:15:42;5.57;;;5.27;;
2289;SDS011;1153;47.986;7.898;2023-08-17T03:18:07;10.67;;;5.50;;
2289;SDS011;1153;47.986;7.898;2023-08-17T03:20:32;4.63;;;4.33;;
2289;SDS011;1153;47.986;7.898;2023-08-17T03:22:58;4.70;;;4.50;;
2289;SDS011;1153;47.986;7.898;2023-08-17T03:25:23;5.10;;;4.80;;
2289;SDS011;1153;47.986;7.898;2023-08-17T03:27:48;6.37;;;6.07;;
2289;SDS011;1153;47.986;7.898;2023-08-17T03:30:13;5.37;;;5.00;;
2289;SDS011;1153;47.986;7.898;2023-08-17T03:32:38;4.97;;;4.70;;
2289;SDS011;1153;47.986;7.898;2023-08-17T03:35:04;5.10;;;4.87;;
2289;SDS011;1153;47.986;7.898;2023-08-17T03:37:29;5.80;;;5.20;;
2289;SDS011;1153;47.986;7.898;2023-08-17T03:39:54;5.13;;;4.10;;
2289;SDS011;1153;47.986;7.898;2023-08-17T03:42:19;5.17;;;4.93;;
2289;SDS011;1153;47.986;7.898;2023-08-17T03:44:45;8.30;;;6.70;;
2289;SDS011;1153;47.986;7.898;2023-08-17T03:47:10;5.93;;;5.37;;
2289;SDS011;1153;47.986;7.898;2023-08-17T03:49:35;5.57;;;5.37;;
2289;SDS011;1153;47.986;7.898;2023-08-17T03:52:00;5.50;;;5.00;;
2289;SDS011;1153;47.986;7.898;2023-08-17T03:54:26;10.07;;;5.20;;
2289;SDS011;1153;47.986;7.898;2023-08-17T03:56:51;5.43;;;5.10;;
2289;SDS011;1153;47.986;7.898;2023-08-17T03:59:16;5.97;;;5.57;;
2289;SDS011;1153;47.986;7.898;2023-08-17T04:01:41;5.53;;;5.23;;
2289;SDS011;1153;47.986;7.898;2023-08-17T04:04:06;4.73;;;4.53;;
2289;SDS011;1153;47.986;7.898;2023-08-17T04:06:32;5.80;;;4.70;;
2289;SDS011;1153;47.986;7.898;2023-08-17T04:08:57;5.00;;;4.80;;
2289;SDS011;1153;47.986;7.898;2023-08-17T04:11:22;5.10;;;4.80;;
2289;SDS011;1153;47.986;7.898;2023-08-17T04:13:47;3.93;;;3.73;;
2289;SDS011;1153;47.986;7.898;2023-08-17T04:16:12;7.63;;;5.90;;
2289;SDS011;1153;47.986;7.898;2023-08-17T04:18:38;4.87;;;4.47;;
2289;SDS011;1153;47.986;7.898;2023-08-17T04:21:03;5.07;;;4.77;;
2289;SDS011;1153;47.986;7.898;2023-08-17T04:23:28;4.77;;;4.47;;
2289;SDS011;1153;47.986;7.898;2023-08-17T04:25:53;9.67;;;4.93;;
2289;SDS011;1153;47.986;7.898;2023-08-17T04:28:18;6.03;;;4.67;;
2289;SDS011;1153;47.986;7.898;2023-08-17T04:30:44;4.73;;;4.27;;
2289;SDS011;1153;47.986;7.898;2023-08-17T04:33:09;4.90;;;4.27;;
2289;SDS011;1153;47.986;7.898;2023-08-17T04:35:34;5.13;;;4.93;;
2289;SDS011;1153;47.986;7.898;2023-08-17T04:37:59;5.10;;;4.80;;
2289;SDS011;1153;47.986;7.898;2023-08-17T04:40:24;4.93;;;4.70;;
2289;SDS011;1153;47.986;7.898;2023-08-17T04:42:50;4.20;;;4.00;;
2289;SDS011;1153;47.986;7.898;2023-08-17T04:45:15;5.43;;;5.03;;
2289;SDS011;1153;47.986;7.898;2023-08-17T04:47:40;5.03;;;4.83;;
2289;SDS011;1153;47.986;7.898;2023-08-17T04:50:05;10.60;;;4.80;;
2289;SDS011;1153;47.986;7.898;2023-08-17T04:52:31;5.73;;;5.30;;
2289;SDS011;1153;47.986;7.898;2023-08-17T04:54:56;6.07;;;5.73;;
2289;SDS011;1153;47.986;7.898;2023-08-17T04:57:21;4.80;;;4.40;;
2289;SDS011;1153;47.986;7.898;2023-08-17T04:59:47;5.23;;;4.83;;
2289;SDS011;1153;47.986;7.898;2023-08-17T05:02:12;6.30;;;5.23;;
2289;SDS011;1153;47.986;7.898;2023-08-17T05:04:37;6.50;;;6.00;;
2289;SDS011;1153;47.986;7.898;2023-08-17T05:07:04;12.30;;;5.70;;
2289;SDS011;1153;47.986;7.898;2023-08-17T05:09:29;8.23;;;5.63;;
2289;SDS011;1153;47.986;7.898;2023-08-17T05:11:55;6.87;;;6.23;;
2289;SDS011;1153;47.986;7.898;2023-08-17T05:14:20;5.57;;;5.17;;
2289;SDS011;1153;47.986;7.898;2023-08-17T05:16:45;5.17;;;4.70;;
2289;SDS011;1153;47.986;7.898;2023-08-17T05:19:10;5.63;;;5.23;;
2289;SDS011;1153;47.986;7.898;2023-08-17T05:21:36;5.60;;;5.20;;
2289;SDS011;1153;47.986;7.898;2023-08-17T05:24:01;14.30;;;6.37;;
2289;SDS011;1153;47.986;7.898;2023-08-17T05:26:26;9.40;;;7.13;;
2289;SDS011;1153;47.986;7.898;2023-08-17T05:28:52;10.73;;;7.00;;
2289;SDS011;1153;47.986;7.898;2023-08-17T05:31:17;10.80;;;7.53;;
2289;SDS011;1153;47.986;7.898;2023-08-17T05:33:42;10.27;;;8.00;;
2289;SDS011;1153;47.986;7.898;2023-08-17T05:36:07;12.93;;;8.30;;
2289;SDS011;1153;47.986;7.898;2023-08-17T05:38:33;12.73;;;10.13;;
2289;SDS011;1153;47.986;7.898;2023-08-17T05:40:58;17.87;;;9.63;;
2289;SDS011;1153;47.986;7.898;2023-08-17T05:43:23;14.50;;;9.60;;
2289;SDS011;1153;47.986;7.898;2023-08-17T05:45:49;10.50;;;9.33;;
2289;SDS011;1153;47.986;7.898;2023-08-17T05:48:14;13.43;;;10.60;;
2289;SDS011;1153;47.986;7.898;2023-08-17T05:50:43;17.63;;;10.40;;
2289;SDS011;1153;47.986;7.898;2023-08-17T05:53:08;10.93;;;9.93;;
2289;SDS011;1153;47.986;7.898;2023-08-17T05:55:33;11.37;;;10.00;;
2289;SDS011;1153;47.986;7.898;2023-08-17T05:57:58;9.73;;;8.80;;
2289;SDS011;1153;47.986;7.898;2023-08-17T06:00:23;13.50;;;8.23;;
2289;SDS011;1153;47.986;7.898;2023-08-17T06:02:49;6.47;;;6.07;;
2289;SDS011;1153;47.986;7.898;2023-08-17T06:05:16;8.63;;;7.93;;
2289;SDS011;1153;47.986;7.898;2023-08-17T06:07:41;7.53;;;6.97;;
2289;SDS011;1153;47.986;7.898;2023-08-17T06:10:06;9.30;;;8.40;;
2289;SDS011;1153;47.986;7.898;2023-08-17T06:12:32;8.60;;;7.47;;
2289;SDS011;1153;47.986;7.898;2023-08-17T06:14:57;9.90;;;7.20;;
2289;SDS011;1153;47.986;7.898;2023-08-17T06:17:22;7.63;;;7.10;;
2289;SDS011;1153;47.986;7.898;2023-08-17T06:19:47;8.10;;;7.53;;
2289;SDS011;1153;47.986;7.898;2023-08-17T06:22:12;8.53;;;7.83;;
2289;SDS011;1153;47.986;7.898;2023-08-17T06:24:38;9.47;;;7.73;;
2289;SDS011;1153;47.986;7.898;2023-08-17T06:27:03;8.10;;;7.50;;
2289;SDS011;1153;47.986;7.898;2023-08-17T06:29:28;7.80;;;7.40;;
2289;SDS011;1153;47.986;7.898;2023-08-17T06:31:53;7.87;;;7.43;;
2289;SDS011;1153;47.986;7.898;2023-08-17T06:34:20;7.77;;;7.40;;
2289;SDS011;1153;47.986;7.898;2023-08-17T06:36:53;9.30;;;7.67;;
2289;SDS011;1153;47.986;7.898;2023-08-17T06:39:21;7.27;;;6.57;;
2289;SDS011;1153;47.986;7.898;2023-08-17T06:41:46;7.23;;;6.90;;
2289;SDS011;1153;47.986;7.898;2023-08-17T06:44:11;6.73;;;6.20;;
2289;SDS011;1153;47.986;7.898;2023-08-17T06:46:36;7.20;;;6.60;;
2289;SDS011;1153;47.986;7.898;2023-08-17T06:49:02;7.07;;;6.53;;
2289;SDS011;1153;47.986;7.898;2023-08-17T06:51:27;8.50;;;7.97;;
2289;SDS011;1153;47.986;7.898;2023-08-17T06:53:53;7.73;;;7.03;;
2289;SDS011;1153;47.986;7.898;2023-08-17T06:56:18;6.73;;;6.40;;
2289;SDS011;1153;47.986;7.898;2023-08-17T06:58:43;8.00;;;6.90;;
2289;SDS011;1153;47.986;7.898;2023-08-17T07:01:08;6.70;;;6.40;;
2289;SDS011;1153;47.986;7.898;2023-08-17T07:03:33;6.57;;;6.17;;
2289;SDS011;1153;47.986;7.898;2023-08-17T07:05:58;6.63;;;6.23;;
2289;SDS011;1153;47.986;7.898;2023-08-17T07:08:24;6.40;;;6.00;;
2289;SDS011;1153;47.986;7.898;2023-08-17T07:10:49;7.43;;;6.83;;
2289;SDS011;1153;47.986;7.898;2023-08-17T07:13:14;8.47;;;6.87;;
2289;SDS011;1153;47.986;7.898;2023-08-17T07:15:39;9.10;;;7.80;;
2289;SDS011;1153;47.986;7.898;2023-08-17T07:18:05;8.50;;;7.90;;
2289;SDS011;1153;47.986;7.898;2023-08-17T07:20:30;7.27;;;6.60;;
2289;SDS011;1153;47.986;7.898;2023-08-17T07:22:55;9.63;;;6.60;;
2289;SDS011;1153;47.986;7.898;2023-08-17T07:25:20;7.57;;;7.00;;
2289;SDS011;1153;47.986;7.898;2023-08-17T07:27:45;8.07;;;6.20;;
2289;SDS011;1153;47.986;7.898;2023-08-17T07:30:11;6.97;;;6.57;;
2289;SDS011;1153;47.986;7.898;2023-08-17T07:32:36;7.70;;;7.10;;
2289;SDS011;1153;47.986;7.898;2023-08-17T07:35:01;13.70;;;6.43;;
2289;SDS011;1153;47.986;7.898;2023-08-17T07:37:26;7.00;;;6.50;;
2289;SDS011;1153;47.986;7.898;2023-08-17T07:39:58;7.23;;;6.83;;
2289;SDS011;1153;47.986;7.898;2023-08-17T07:42:23;6.87;;;6.47;;
2289;SDS011;1153;47.986;7.898;2023-08-17T07:44:48;6.73;;;6.17;;
2289;SDS011;1153;47.986;7.898;2023-08-17T07:47:14;6.43;;;6.13;;
2289;SDS011;1153;47.986;7.898;2023-08-17T07:49:39;7.03;;;6.60;;
2289;SDS011;1153;47.986;7.898;2023-08-17T07:52:04;7.97;;;7.37;;
2289;SDS011;1153;47.986;7.898;2023-08-17T07:54:30;7.87;;;6.13;;
2289;SDS011;1153;47.986;7.898;2023-08-17T07:56:55;6.53;;;6.13;;
2289;SDS011;1153;47.986;7.898;2023-08-17T07:59:20;7.80;;;7.13;;
2289;SDS011;1153;47.986;7.898;2023-08-17T08:01:45;6.47;;;6.07;;
2289;SDS011;1153;47.986;7.898;2023-08-17T08:04:10;7.57;;;6.87;;
2289;SDS011;1153;47.986;7.898;2023-08-17T08:06:35;8.70;;;6.90;;
2289;SDS011;1153;47.986;7.898;2023-08-17T08:09:01;6.77;;;6.00;;
2289;SDS011;1153;47.986;7.898;2023-08-17T08:11:26;8.47;;;7.70;;
2289;SDS011;1153;47.986;7.898;2023-08-17T08:13:52;9.97;;;9.07;;
2289;SDS011;1153;47.986;7.898;2023-08-17T08:16:17;8.83;;;8.07;;
2289;SDS011;1153;47.986;7.898;2023-08-17T08:18:43;8.00;;;7.30;;
2289;SDS011;1153;47.986;7.898;2023-08-17T08:21:08;10.03;;;8.10;;
2289;SDS011;1153;47.986;7.898;2023-08-17T08:23:33;8.20;;;7.50;;
2289;SDS011;1153;47.986;7.898;2023-08-17T08:25:58;8.23;;;7.73;;
2289;SDS011;1153;47.986;7.898;2023-08-17T08:28:23;8.50;;;7.70;;
2289;SDS011;1153;47.986;7.898;2023-08-17T08:30:49;7.60;;;6.97;;
2289;SDS011;1153;47.986;7.898;2023-08-17T08:33:14;9.73;;;7.90;;
2289;SDS011;1153;47.986;7.898;2023-08-17T08:35:39;8.37;;;7.67;;
2289;SDS011;1153;47.986;7.898;2023-08-17T08:38:04;11.37;;;9.37;;
2289;SDS011;1153;47.986;7.898;2023-08-17T08:40:30;8.40;;;7.43;;
2289;SDS011;1153;47.986;7.898;2023-08-17T08:42:56;9.30;;;8.43;;
2289;SDS011;1153;47.986;7.898;2023-08-17T08:45:22;8.60;;;7.90;;
2289;SDS011;1153;47.986;7.898;2023-08-17T08:47:47;8.80;;;8.03;;
2289;SDS011;1153;47.986;7.898;2023-08-17T08:50:18;9.17;;;8.23;;
2289;SDS011;1153;47.986;7.898;2023-08-17T08:52:44;6.80;;;6.40;;
2289;SDS011;1153;47.986;7.898;2023-08-17T08:55:16;8.93;;;8.10;;
2289;SDS011;1153;47.986;7.898;2023-08-17T08:57:42;8.53;;;7.37;;
2289;SDS011;1153;47.986;7.898;2023-08-17T09:00:07;20.93;;;8.33;;
2289;SDS011;1153;47.986;7.898;2023-08-17T09:02:34;10.77;;;8.77;;
2289;SDS011;1153;47.986;7.898;2023-08-17T09:04:59;9.13;;;7.10;;
2289;SDS011;1153;47.986;7.898;2023-08-17T09:07:25;8.00;;;7.40;;
2289;SDS011;1153;47.986;7.898;2023-08-17T09:09:51;7.30;;;6.77;;
2289;SDS011;1153;47.986;7.898;2023-08-17T09:12:17;7.27;;;6.57;;
2289;SDS011;1153;47.986;7.898;2023-08-17T09:14:42;7.70;;;7.20;;
2289;SDS011;1153;47.986;7.898;2023-08-17T09:17:07;11.07;;;7.53;;
2289;SDS011;1153;47.986;7.898;2023-08-17T09:19:33;6.50;;;6.10;;
2289;SDS011;1153;47.986;7.898;2023-08-17T09:21:58;6.90;;;6.40;;
2289;SDS011;1153;47.986;7.898;2023-08-17T09:24:23;6.53;;;5.93;;
2289;SDS011;1153;47.986;7.898;2023-08-17T09:26:49;7.47;;;7.07;;
2289;SDS011;1153;47.986;7.898;2023-08-17T09:29:18;7.10;;;6.50;;
2289;SDS011;1153;47.986;7.898;2023-08-17T09:31:43;6.13;;;5.83;;
2289;SDS011;1153;47.986;7.898;2023-08-17T09:34:09;6.63;;;6.27;;
2289;SDS011;1153;47.986;7.898;2023-08-17T09:36:38;6.70;;;6.40;;
2289;SDS011;1153;47.986;7.898;2023-08-17T09:39:03;7.67;;;7.07;;
2289;SDS011;1153;47.986;7.898;2023-08-17T09:41:29;6.23;;;5.90;;
2289;SDS011;1153;47.986;7.898;2023-08-17T09:43:54;8.43;;;7.73;;
2289;SDS011;1153;47.986;7.898;2023-08-17T09:46:19;14.13;;;8.23;;
2289;SDS011;1153;47.986;7.898;2023-08-17T09:48:45;5.20;;;5.00;;
2289;SDS011;1153;47.986;7.898;2023-08-17T09:51:16;7.73;;;7.33;;
2289;SDS011;1153;47.986;7.898;2023-08-17T09:53:41;8.10;;;7.53;;
2289;SDS011;1153;47.986;7.898;2023-08-17T09:56:07;10.40;;;7.07;;
2289;SDS011;1153;47.986;7.898;2023-08-17T09:58:33;7.23;;;6.47;;
2289;SDS011;1153;47.986;7.898;2023-08-17T10:00:58;7.10;;;6.70;;
2289;SDS011;1153;47.986;7.898;2023-08-17T10:03:24;7.03;;;6.60;;
2289;SDS011;1153;47.986;7.898;2023-08-17T10:05:54;6.30;;;5.90;;
2289;SDS011;1153;47.986;7.898;2023-08-17T10:08:20;6.87;;;6.43;;
2289;SDS011;1153;47.986;7.898;2023-08-17T10:10:46;6.63;;;6.40;;
2289;SDS011;1153;47.986;7.898;2023-08-17T10:13:14;7.37;;;6.87;;
2289;SDS011;1153;47.986;7.898;2023-08-17T10:15:43;11.03;;;6.47;;
2289;SDS011;1153;47.986;7.898;2023-08-17T10:20:54;6.00;;;5.60;;
2289;SDS011;1153;47.986;7.898;2023-08-17T10:23:24;9.53;;;7.10;;
2289;SDS011;1153;47.986;7.898;2023-08-17T10:25:50;8.37;;;6.50;;
2289;SDS011;1153;47.986;7.898;2023-08-17T10:28:16;6.17;;;5.77;;
2289;SDS011;1153;47.986;7.898;2023-08-17T10:30:42;6.93;;;6.43;;
2289;SDS011;1153;47.986;7.898;2023-08-17T10:33:07;6.73;;;6.23;;
2289;SDS011;1153;47.986;7.898;2023-08-17T10:35:34;4.97;;;4.67;;
2289;SDS011;1153;47.986;7.898;2023-08-17T10:38:01;6.53;;;6.23;;
2289;SDS011;1153;47.986;7.898;2023-08-17T10:40:36;5.57;;;5.17;;
2289;SDS011;1153;47.986;7.898;2023-08-17T10:43:02;7.23;;;4.87;;
2289;SDS011;1153;47.986;7.898;2023-08-17T10:45:28;5.20;;;5.00;;
2289;SDS011;1153;47.986;7.898;2023-08-17T10:50:28;5.23;;;4.93;;
2289;SDS011;1153;47.986;7.898;2023-08-17T10:52:53;4.33;;;4.13;;
2289;SDS011;1153;47.986;7.898;2023-08-17T10:55:34;4.33;;;4.10;;
2289;SDS011;1153;47.986;7.898;2023-08-17T10:58:00;3.57;;;3.37;;
2289;SDS011;1153;47.986;7.898;2023-08-17T11:00:25;9.03;;;4.73;;
2289;SDS011;1153;47.986;7.898;2023-08-17T11:02:58;4.37;;;3.97;;
2289;SDS011;1153;47.986;7.898;2023-08-17T11:08:02;3.80;;;2.23;;
2289;SDS011;1153;47.986;7.898;2023-08-17T11:10:27;3.30;;;3.00;;
2289;SDS011;1153;47.986;7.898;2023-08-17T11:12:56;3.30;;;3.10;;
2289;SDS011;1153;47.986;7.898;2023-08-17T11:15:41;3.37;;;3.27;;
2289;SDS011;1153;47.986;7.898;2023-08-17T11:18:07;4.17;;;3.80;;
2289;SDS011;1153;47.986;7.898;2023-08-17T11:20:33;3.50;;;2.87;;
2289;SDS011;1153;47.986;7.898;2023-08-17T11:22:58;8.03;;;3.80;;
2289;SDS011;1153;47.986;7.898;2023-08-17T11:25:26;4.20;;;3.90;;
2289;SDS011;1153;47.986;7.898;2023-08-17T11:27:52;3.13;;;2.93;;
2289;SDS011;1153;47.986;7.898;2023-08-17T11:30:18;4.10;;;3.13;;
2289;SDS011;1153;47.986;7.898;2023-08-17T11:32:43;3.20;;;2.93;;
2289;SDS011;1153;47.986;7.898;2023-08-17T11:35:08;4.93;;;3.10;;
2289;SDS011;1153;47.986;7.898;2023-08-17T11:40:36;3.20;;;1.87;;
2289;SDS011;1153;47.986;7.898;2023-08-17T11:43:02;2.87;;;2.63;;
2289;SDS011;1153;47.986;7.898;2023-08-17T11:45:27;2.53;;;2.33;;
2289;SDS011;1153;47.986;7.898;2023-08-17T11:47:52;3.13;;;2.80;;
2289;SDS011;1153;47.986;7.898;2023-08-17T11:50:17;2.97;;;2.13;;
2289;SDS011;1153;47.986;7.898;2023-08-17T11:52:43;2.30;;;2.20;;
2289;SDS011;1153;47.986;7.898;2023-08-17T11:55:08;3.63;;;2.97;;
2289;SDS011;1153;47.986;7.898;2023-08-17T11:57:37;2.90;;;2.70;;
2289;SDS011;1153;47.986;7.898;2023-08-17T12:00:03;3.07;;;1.90;;
2289;SDS011;1153;47.986;7.898;2023-08-17T12:02:29;2.80;;;1.80;;
2289;SDS011;1153;47.986;7.898;2023-08-17T12:04:55;3.00;;;1.90;;
2289;SDS011;1153;47.986;7.898;2023-08-17T12:07:21;4.43;;;2.03;;
2289;SDS011;1153;47.986;7.898;2023-08-17T12:09:47;3.10;;;1.10;;
2289;SDS011;1153;47.986;7.898;2023-08-17T12:12:12;1.43;;;1.33;;
2289;SDS011;1153;47.986;7.898;2023-08-17T12:14:41;2.30;;;1.70;;
2289;SDS011;1153;47.986;7.898;2023-08-17T12:17:06;3.03;;;1.60;;
2289;SDS011;1153;47.986;7.898;2023-08-17T12:19:31;3.83;;;1.20;;
2289;SDS011;1153;47.986;7.898;2023-08-17T12:21:56;3.60;;;2.27;;
2289;SDS011;1153;47.986;7.898;2023-08-17T12:24:25;1.63;;;1.53;;
2289;SDS011;1153;47.986;7.898;2023-08-17T12:26:50;2.53;;;1.40;;
2289;SDS011;1153;47.986;7.898;2023-08-17T12:29:15;4.03;;;1.60;;
2289;SDS011;1153;47.986;7.898;2023-08-17T12:31:41;2.37;;;1.13;;
2289;SDS011;1153;47.986;7.898;2023-08-17T12:34:06;1.37;;;1.20;;
2289;SDS011;1153;47.986;7.898;2023-08-17T12:36:34;30.07;;;3.90;;
2289;SDS011;1153;47.986;7.898;2023-08-17T12:39:02;4.97;;;1.43;;
2289;SDS011;1153;47.986;7.898;2023-08-17T12:41:28;4.53;;;1.53;;
2289;SDS011;1153;47.986;7.898;2023-08-17T12:43:54;7.53;;;3.43;;
2289;SDS011;1153;47.986;7.898;2023-08-17T12:46:19;3.00;;;2.00;;
2289;SDS011;1153;47.986;7.898;2023-08-17T12:48:44;2.57;;;2.10;;
2289;SDS011;1153;47.986;7.898;2023-08-17T12:51:09;1.87;;;1.77;;
2289;SDS011;1153;47.986;7.898;2023-08-17T12:53:34;3.33;;;2.00;;
2289;SDS011;1153;47.986;7.898;2023-08-17T12:56:00;9.37;;;1.90;;
2289;SDS011;1153;47.986;7.898;2023-08-17T12:58:25;5.70;;;3.10;;
2289;SDS011;1153;47.986;7.898;2023-08-17T13:00:50;1.53;;;1.30;;
2289;SDS011;1153;47.986;7.898;2023-08-17T13:03:16;4.50;;;1.80;;
2289;SDS011;1153;47.986;7.898;2023-08-17T13:05:42;3.80;;;1.90;;
2289;SDS011;1153;47.986;7.898;2023-08-17T13:08:07;5.23;;;1.70;;
2289;SDS011;1153;47.986;7.898;2023-08-17T13:10:33;3.97;;;2.60;;
2289;SDS011;1153;47.986;7.898;2023-08-17T13:12:59;2.17;;;1.70;;
2289;SDS011;1153;47.986;7.898;2023-08-17T13:15:24;3.13;;;2.00;;
2289;SDS011;1153;47.986;7.898;2023-08-17T13:17:49;7.87;;;1.97;;
2289;SDS011;1153;47.986;7.898;2023-08-17T13:20:14;3.20;;;1.90;;
2289;SDS011;1153;47.986;7.898;2023-08-17T13:22:40;3.03;;;1.57;;
2289;SDS011;1153;47.986;7.898;2023-08-17T13:25:05;5.57;;;1.57;;
2289;SDS011;1153;47.986;7.898;2023-08-17T13:27:30;7.23;;;2.13;;
2289;SDS011;1153;47.986;7.898;2023-08-17T13:29:55;4.20;;;2.70;;
2289;SDS011;1153;47.986;7.898;2023-08-17T13:32:23;2.90;;;2.20;;
2289;SDS011;1153;47.986;7.898;2023-08-17T13:34:48;2.80;;;2.60;;
2289;SDS011;1153;47.986;7.898;2023-08-17T13:37:14;5.00;;;2.43;;
2289;SDS011;1153;47.986;7.898;2023-08-17T13:39:39;4.83;;;2.67;;
2289;SDS011;1153;47.986;7.898;2023-08-17T13:42:04;2.80;;;2.60;;
2289;SDS011;1153;47.986;7.898;2023-08-17T13:44:29;2.77;;;2.47;;
2289;SDS011;1153;47.986;7.898;2023-08-17T13:46:54;2.77;;;2.57;;
2289;SDS011;1153;47.986;7.898;2023-08-17T13:49:20;5.50;;;2.50;;
2289;SDS011;1153;47.986;7.898;2023-08-17T13:51:45;2.07;;;1.80;;
2289;SDS011;1153;47.986;7.898;2023-08-17T13:54:10;3.80;;;2.30;;
2289;SDS011;1153;47.986;7.898;2023-08-17T13:56:35;3.20;;;3.00;;
2289;SDS011;1153;47.986;7.898;2023-08-17T13:59:00;3.00;;;2.70;;
2289;SDS011;1153;47.986;7.898;2023-08-17T14:01:27;4.03;;;2.30;;
2289;SDS011;1153;47.986;7.898;2023-08-17T14:03:52;2.83;;;2.63;;
2289;SDS011;1153;47.986;7.898;2023-08-17T14:06:17;3.00;;;2.83;;
2289;SDS011;1153;47.986;7.898;2023-08-17T14:08:43;8.30;;;2.00;;
2289;SDS011;1153;47.986;7.898;2023-08-17T14:11:08;4.37;;;3.07;;
2289;SDS011;1153;47.986;7.898;2023-08-17T14:13:33;4.17;;;2.30;;
2289;SDS011;1153;47.986;7.898;2023-08-17T14:15:59;2.70;;;2.17;;
2289;SDS011;1153;47.986;7.898;2023-08-17T14:18:24;3.60;;;3.30;;
2289;SDS011;1153;47.986;7.898;2023-08-17T14:20:49;4.90;;;3.70;;
2289;SDS011;1153;47.986;7.898;2023-08-17T14:23:15;2.83;;;2.60;;
2289;SDS011;1153;47.986;7.898;2023-08-17T14:25:40;4.60;;;2.63;;
2289;SDS011;1153;47.986;7.898;2023-08-17T14:28:05;4.30;;;1.50;;
2289;SDS011;1153;47.986;7.898;2023-08-17T14:30:32;9.03;;;2.43;;
2289;SDS011;1153;47.986;7.898;2023-08-17T14:32:57;3.77;;;2.10;;
2289;SDS011;1153;47.986;7.898;2023-08-17T14:35:22;1.97;;;1.87;;
2289;SDS011;1153;47.986;7.898;2023-08-17T14:37:48;2.90;;;2.03;;
2289;SDS011;1153;47.986;7.898;2023-08-17T14:40:13;2.60;;;2.40;;
2289;SDS011;1153;47.986;7.898;2023-08-17T14:42:38;6.77;;;2.30;;
2289;SDS011;1153;47.986;7.898;2023-08-17T14:45:04;4.20;;;2.93;;
2289;SDS011;1153;47.986;7.898;2023-08-17T14:47:29;2.70;;;2.00;;
2289;SDS011;1153;47.986;7.898;2023-08-17T14:49:54;3.20;;;2.40;;
2289;SDS011;1153;47.986;7.898;2023-08-17T14:52:20;2.90;;;2.70;;
2289;SDS011;1153;47.986;7.898;2023-08-17T14:54:46;6.00;;;2.07;;
2289;SDS011;1153;47.986;7.898;2023-08-17T14:57:11;2.57;;;2.37;;
2289;SDS011;1153;47.986;7.898;2023-08-17T14:59:36;10.33;;;3.10;;
2289;SDS011;1153;47.986;7.898;2023-08-17T15:02:01;2.40;;;2.30;;
2289;SDS011;1153;47.986;7.898;2023-08-17T15:04:27;7.03;;;4.10;;
2289;SDS011;1153;47.986;7.898;2023-08-17T15:06:52;3.03;;;2.83;;
2289;SDS011;1153;47.986;7.898;2023-08-17T15:09:17;3.77;;;2.63;;
2289;SDS011;1153;47.986;7.898;2023-08-17T15:11:42;2.53;;;2.43;;
2289;SDS011;1153;47.986;7.898;2023-08-17T15:14:08;2.47;;;2.37;;
2289;SDS011;1153;47.986;7.898;2023-08-17T15:16:33;5.47;;;2.87;;